sensor_id;sensor_type;location;lat;lon;timestamp;P1;durP1;ratioP1;P2;durP2;ratioP2
10114;SDS011;5097;43.260;27.812;2023-05-27T00:00:33;12.25;;;11.18;;
10114;SDS011;5097;43.260;27.812;2023-05-27T00:03:17;12.90;;;11.60;;
10114;SDS011;5097;43.260;27.812;2023-05-27T00:06:01;14.43;;;12.60;;
10114;SDS011;5097;43.260;27.812;2023-05-27T00:08:46;14.95;;;13.50;;
10114;SDS011;5097;43.260;27.812;2023-05-27T00:11:30;15.88;;;14.35;;
10114;SDS011;5097;43.260;27.812;2023-05-27T00:14:14;17.35;;;13.93;;
10114;SDS011;5097;43.260;27.812;2023-05-27T00:16:59;16.20;;;14.70;;
10114;SDS011;5097;43.260;27.812;2023-05-27T00:19:45;19.25;;;15.48;;
10114;SDS011;5097;43.260;27.812;2023-05-27T00:22:30;17.73;;;14.02;;
10114;SDS011;5097;43.260;27.812;2023-05-27T00:25:16;15.85;;;14.25;;
10114;SDS011;5097;43.260;27.812;2023-05-27T00:28:02;15.40;;;13.77;;
10114;SDS011;5097;43.260;27.812;2023-05-27T00:30:46;18.50;;;14.50;;
10114;SDS011;5097;43.260;27.812;2023-05-27T00:33:31;14.43;;;13.13;;
10114;SDS011;5097;43.260;27.812;2023-05-27T00:36:15;14.88;;;13.40;;
10114;SDS011;5097;43.260;27.812;2023-05-27T00:38:59;17.73;;;14.07;;
10114;SDS011;5097;43.260;27.812;2023-05-27T00:41:47;14.60;;;13.13;;
10114;SDS011;5097;43.260;27.812;2023-05-27T00:44:33;15.45;;;13.85;;
10114;SDS011;5097;43.260;27.812;2023-05-27T00:47:17;13.43;;;12.27;;
10114;SDS011;5097;43.260;27.812;2023-05-27T00:50:01;15.35;;;13.48;;
10114;SDS011;5097;43.260;27.812;2023-05-27T00:52:46;17.58;;;13.02;;
10114;SDS011;5097;43.260;27.812;2023-05-27T00:55:31;14.32;;;12.77;;
10114;SDS011;5097;43.260;27.812;2023-05-27T00:58:16;13.77;;;12.53;;
10114;SDS011;5097;43.260;27.812;2023-05-27T01:01:03;15.95;;;12.85;;
10114;SDS011;5097;43.260;27.812;2023-05-27T01:03:49;14.13;;;12.88;;
10114;SDS011;5097;43.260;27.812;2023-05-27T01:06:35;14.65;;;13.30;;
10114;SDS011;5097;43.260;27.812;2023-05-27T01:09:31;14.13;;;12.73;;
10114;SDS011;5097;43.260;27.812;2023-05-27T01:12:26;13.65;;;12.32;;
10114;SDS011;5097;43.260;27.812;2023-05-27T01:15:16;12.80;;;11.60;;
10114;SDS011;5097;43.260;27.812;2023-05-27T01:18:02;13.32;;;12.02;;
10114;SDS011;5097;43.260;27.812;2023-05-27T01:20:47;12.82;;;11.60;;
10114;SDS011;5097;43.260;27.812;2023-05-27T01:23:35;12.60;;;11.30;;
10114;SDS011;5097;43.260;27.812;2023-05-27T01:26:21;13.37;;;12.07;;
10114;SDS011;5097;43.260;27.812;2023-05-27T01:29:04;13.17;;;11.60;;
10114;SDS011;5097;43.260;27.812;2023-05-27T01:31:51;13.50;;;12.23;;
10114;SDS011;5097;43.260;27.812;2023-05-27T01:34:44;13.13;;;11.97;;
10114;SDS011;5097;43.260;27.812;2023-05-27T01:37:35;12.90;;;11.37;;
10114;SDS011;5097;43.260;27.812;2023-05-27T01:40:22;14.60;;;12.47;;
10114;SDS011;5097;43.260;27.812;2023-05-27T01:43:08;14.17;;;11.47;;
10114;SDS011;5097;43.260;27.812;2023-05-27T01:45:54;12.60;;;11.40;;
10114;SDS011;5097;43.260;27.812;2023-05-27T01:48:38;12.93;;;11.70;;
10114;SDS011;5097;43.260;27.812;2023-05-27T01:51:22;12.70;;;11.40;;
10114;SDS011;5097;43.260;27.812;2023-05-27T01:54:06;11.13;;;10.13;;
10114;SDS011;5097;43.260;27.812;2023-05-27T01:56:52;12.67;;;10.20;;
10114;SDS011;5097;43.260;27.812;2023-05-27T01:59:36;12.63;;;11.53;;
10114;SDS011;5097;43.260;27.812;2023-05-27T02:02:20;12.43;;;11.07;;
10114;SDS011;5097;43.260;27.812;2023-05-27T02:05:05;12.80;;;11.30;;
10114;SDS011;5097;43.260;27.812;2023-05-27T02:07:49;11.97;;;10.87;;
10114;SDS011;5097;43.260;27.812;2023-05-27T02:10:33;13.03;;;11.70;;
10114;SDS011;5097;43.260;27.812;2023-05-27T02:13:18;11.67;;;10.53;;
10114;SDS011;5097;43.260;27.812;2023-05-27T02:16:02;13.07;;;11.87;;
10114;SDS011;5097;43.260;27.812;2023-05-27T02:18:47;14.70;;;12.00;;
10114;SDS011;5097;43.260;27.812;2023-05-27T02:21:32;12.70;;;11.30;;
10114;SDS011;5097;43.260;27.812;2023-05-27T02:24:16;13.90;;;12.43;;
10114;SDS011;5097;43.260;27.812;2023-05-27T02:27:00;12.90;;;11.57;;
10114;SDS011;5097;43.260;27.812;2023-05-27T02:29:46;13.07;;;11.90;;
10114;SDS011;5097;43.260;27.812;2023-05-27T02:32:31;13.17;;;11.87;;
10114;SDS011;5097;43.260;27.812;2023-05-27T02:35:17;14.47;;;12.97;;
10114;SDS011;5097;43.260;27.812;2023-05-27T02:38:01;13.73;;;12.37;;
10114;SDS011;5097;43.260;27.812;2023-05-27T02:40:45;14.00;;;12.60;;
10114;SDS011;5097;43.260;27.812;2023-05-27T02:43:29;15.03;;;12.77;;
10114;SDS011;5097;43.260;27.812;2023-05-27T02:46:14;12.90;;;11.80;;
10114;SDS011;5097;43.260;27.812;2023-05-27T02:48:59;13.07;;;11.67;;
10114;SDS011;5097;43.260;27.812;2023-05-27T02:51:43;14.20;;;11.90;;
10114;SDS011;5097;43.260;27.812;2023-05-27T02:54:27;12.27;;;11.17;;
10114;SDS011;5097;43.260;27.812;2023-05-27T02:57:11;13.30;;;12.10;;
10114;SDS011;5097;43.260;27.812;2023-05-27T02:59:55;13.87;;;11.50;;
10114;SDS011;5097;43.260;27.812;2023-05-27T03:02:40;11.37;;;10.47;;
10114;SDS011;5097;43.260;27.812;2023-05-27T03:05:24;11.87;;;10.70;;
10114;SDS011;5097;43.260;27.812;2023-05-27T03:08:08;12.68;;;11.57;;
10114;SDS011;5097;43.260;27.812;2023-05-27T03:10:52;12.20;;;10.93;;
10114;SDS011;5097;43.260;27.812;2023-05-27T03:13:36;12.33;;;11.30;;
10114;SDS011;5097;43.260;27.812;2023-05-27T03:16:20;11.90;;;10.87;;
10114;SDS011;5097;43.260;27.812;2023-05-27T03:19:06;11.37;;;10.40;;
10114;SDS011;5097;43.260;27.812;2023-05-27T03:21:51;11.27;;;10.10;;
10114;SDS011;5097;43.260;27.812;2023-05-27T03:24:35;11.30;;;10.30;;
10114;SDS011;5097;43.260;27.812;2023-05-27T03:27:19;12.05;;;10.80;;
10114;SDS011;5097;43.260;27.812;2023-05-27T03:30:04;11.52;;;10.43;;
10114;SDS011;5097;43.260;27.812;2023-05-27T03:32:54;10.90;;;10.00;;
10114;SDS011;5097;43.260;27.812;2023-05-27T03:35:50;11.48;;;10.25;;
10114;SDS011;5097;43.260;27.812;2023-05-27T03:38:34;11.82;;;9.98;;
10114;SDS011;5097;43.260;27.812;2023-05-27T03:41:18;9.95;;;9.15;;
10114;SDS011;5097;43.260;27.812;2023-05-27T03:44:03;10.02;;;8.85;;
10114;SDS011;5097;43.260;27.812;2023-05-27T03:46:48;9.55;;;8.65;;
10114;SDS011;5097;43.260;27.812;2023-05-27T03:49:32;9.40;;;8.63;;
10114;SDS011;5097;43.260;27.812;2023-05-27T03:52:18;10.02;;;9.15;;
10114;SDS011;5097;43.260;27.812;2023-05-27T03:55:03;8.20;;;7.40;;
10114;SDS011;5097;43.260;27.812;2023-05-27T03:57:49;7.88;;;7.18;;
10114;SDS011;5097;43.260;27.812;2023-05-27T04:00:33;8.80;;;8.10;;
10114;SDS011;5097;43.260;27.812;2023-05-27T04:03:17;6.30;;;5.80;;
10114;SDS011;5097;43.260;27.812;2023-05-27T04:06:04;7.18;;;6.65;;
10114;SDS011;5097;43.260;27.812;2023-05-27T04:08:50;8.18;;;7.57;;
10114;SDS011;5097;43.260;27.812;2023-05-27T04:11:34;7.00;;;5.82;;
10114;SDS011;5097;43.260;27.812;2023-05-27T04:14:17;8.07;;;7.35;;
10114;SDS011;5097;43.260;27.812;2023-05-27T04:17:02;9.38;;;7.55;;
10114;SDS011;5097;43.260;27.812;2023-05-27T04:19:46;8.32;;;7.53;;
10114;SDS011;5097;43.260;27.812;2023-05-27T04:22:31;7.72;;;6.95;;
10114;SDS011;5097;43.260;27.812;2023-05-27T04:25:17;8.48;;;6.90;;
10114;SDS011;5097;43.260;27.812;2023-05-27T04:28:20;7.22;;;6.72;;
10114;SDS011;5097;43.260;27.812;2023-05-27T04:31:05;10.38;;;6.63;;
10114;SDS011;5097;43.260;27.812;2023-05-27T04:34:00;6.22;;;5.72;;
10114;SDS011;5097;43.260;27.812;2023-05-27T04:36:46;6.25;;;5.65;;
10114;SDS011;5097;43.260;27.812;2023-05-27T04:39:35;6.45;;;5.95;;
10114;SDS011;5097;43.260;27.812;2023-05-27T04:42:25;7.78;;;6.85;;
10114;SDS011;5097;43.260;27.812;2023-05-27T04:45:09;7.70;;;7.05;;
10114;SDS011;5097;43.260;27.812;2023-05-27T04:47:54;7.50;;;6.80;;
10114;SDS011;5097;43.260;27.812;2023-05-27T04:50:40;7.18;;;6.53;;
10114;SDS011;5097;43.260;27.812;2023-05-27T04:53:24;7.28;;;6.57;;
10114;SDS011;5097;43.260;27.812;2023-05-27T04:56:08;7.53;;;6.88;;
10114;SDS011;5097;43.260;27.812;2023-05-27T04:58:56;7.88;;;7.13;;
10114;SDS011;5097;43.260;27.812;2023-05-27T05:01:45;8.80;;;7.05;;
10114;SDS011;5097;43.260;27.812;2023-05-27T05:04:58;10.15;;;7.70;;
10114;SDS011;5097;43.260;27.812;2023-05-27T05:07:44;7.80;;;7.00;;
10114;SDS011;5097;43.260;27.812;2023-05-27T05:10:30;8.18;;;7.18;;
10114;SDS011;5097;43.260;27.812;2023-05-27T05:13:17;12.68;;;7.78;;
10114;SDS011;5097;43.260;27.812;2023-05-27T05:16:03;7.65;;;7.00;;
10114;SDS011;5097;43.260;27.812;2023-05-27T05:18:48;9.77;;;8.23;;
10114;SDS011;5097;43.260;27.812;2023-05-27T05:21:33;9.02;;;8.23;;
10114;SDS011;5097;43.260;27.812;2023-05-27T05:24:20;9.18;;;8.38;;
10114;SDS011;5097;43.260;27.812;2023-05-27T05:27:05;8.65;;;7.85;;
10114;SDS011;5097;43.260;27.812;2023-05-27T05:29:49;9.52;;;8.50;;
10114;SDS011;5097;43.260;27.812;2023-05-27T05:32:35;10.35;;;9.32;;
10114;SDS011;5097;43.260;27.812;2023-05-27T05:35:19;9.32;;;8.52;;
10114;SDS011;5097;43.260;27.812;2023-05-27T05:38:08;10.82;;;9.70;;
10114;SDS011;5097;43.260;27.812;2023-05-27T05:40:52;10.95;;;8.27;;
10114;SDS011;5097;43.260;27.812;2023-05-27T05:43:37;10.90;;;8.75;;
10114;SDS011;5097;43.260;27.812;2023-05-27T05:46:21;10.05;;;9.05;;
10114;SDS011;5097;43.260;27.812;2023-05-27T05:49:07;9.15;;;7.97;;
10114;SDS011;5097;43.260;27.812;2023-05-27T05:51:55;11.05;;;8.32;;
10114;SDS011;5097;43.260;27.812;2023-05-27T05:54:39;8.88;;;8.07;;
10114;SDS011;5097;43.260;27.812;2023-05-27T05:57:24;9.88;;;8.30;;
10114;SDS011;5097;43.260;27.812;2023-05-27T06:00:08;9.02;;;7.78;;
10114;SDS011;5097;43.260;27.812;2023-05-27T06:02:59;10.30;;;7.97;;
10114;SDS011;5097;43.260;27.812;2023-05-27T06:06:05;8.75;;;8.05;;
10114;SDS011;5097;43.260;27.812;2023-05-27T06:09:02;8.30;;;7.60;;
10114;SDS011;5097;43.260;27.812;2023-05-27T06:11:48;9.25;;;8.32;;
10114;SDS011;5097;43.260;27.812;2023-05-27T06:14:32;9.50;;;7.75;;
10114;SDS011;5097;43.260;27.812;2023-05-27T06:17:16;9.07;;;8.25;;
10114;SDS011;5097;43.260;27.812;2023-05-27T06:20:00;11.25;;;8.40;;
10114;SDS011;5097;43.260;27.812;2023-05-27T06:22:47;10.60;;;8.35;;
10114;SDS011;5097;43.260;27.812;2023-05-27T06:25:51;8.73;;;7.97;;
10114;SDS011;5097;43.260;27.812;2023-05-27T06:28:36;8.80;;;8.10;;
10114;SDS011;5097;43.260;27.812;2023-05-27T06:31:20;9.20;;;8.02;;
10114;SDS011;5097;43.260;27.812;2023-05-27T06:34:04;12.13;;;8.93;;
10114;SDS011;5097;43.260;27.812;2023-05-27T06:36:49;9.25;;;8.32;;
10114;SDS011;5097;43.260;27.812;2023-05-27T06:39:34;14.98;;;8.43;;
10114;SDS011;5097;43.260;27.812;2023-05-27T06:42:19;13.73;;;9.50;;
10114;SDS011;5097;43.260;27.812;2023-05-27T06:45:18;10.57;;;9.63;;
10114;SDS011;5097;43.260;27.812;2023-05-27T06:48:08;11.85;;;8.88;;
10114;SDS011;5097;43.260;27.812;2023-05-27T06:50:52;9.88;;;9.07;;
10114;SDS011;5097;43.260;27.812;2023-05-27T06:53:37;13.82;;;9.10;;
10114;SDS011;5097;43.260;27.812;2023-05-27T06:56:27;10.15;;;8.40;;
10114;SDS011;5097;43.260;27.812;2023-05-27T06:59:11;11.82;;;9.57;;
10114;SDS011;5097;43.260;27.812;2023-05-27T07:01:55;10.27;;;8.85;;
10114;SDS011;5097;43.260;27.812;2023-05-27T07:04:39;10.02;;;9.00;;
10114;SDS011;5097;43.260;27.812;2023-05-27T07:07:24;10.07;;;9.07;;
10114;SDS011;5097;43.260;27.812;2023-05-27T07:10:09;10.07;;;9.05;;
10114;SDS011;5097;43.260;27.812;2023-05-27T07:12:54;10.60;;;9.60;;
10114;SDS011;5097;43.260;27.812;2023-05-27T07:15:52;11.38;;;9.20;;
10114;SDS011;5097;43.260;27.812;2023-05-27T07:18:36;10.32;;;8.65;;
10114;SDS011;5097;43.260;27.812;2023-05-27T07:21:21;10.18;;;9.07;;
10114;SDS011;5097;43.260;27.812;2023-05-27T07:24:06;10.15;;;9.15;;
10114;SDS011;5097;43.260;27.812;2023-05-27T07:26:52;9.98;;;9.07;;
10114;SDS011;5097;43.260;27.812;2023-05-27T07:29:39;13.80;;;11.77;;
10114;SDS011;5097;43.260;27.812;2023-05-27T07:32:25;10.75;;;9.40;;
10114;SDS011;5097;43.260;27.812;2023-05-27T07:35:11;8.68;;;8.02;;
10114;SDS011;5097;43.260;27.812;2023-05-27T07:37:55;10.40;;;9.20;;
10114;SDS011;5097;43.260;27.812;2023-05-27T07:40:39;12.30;;;8.95;;
10114;SDS011;5097;43.260;27.812;2023-05-27T07:43:23;9.32;;;7.78;;
10114;SDS011;5097;43.260;27.812;2023-05-27T07:46:09;8.80;;;7.55;;
10114;SDS011;5097;43.260;27.812;2023-05-27T07:48:55;8.98;;;8.13;;
10114;SDS011;5097;43.260;27.812;2023-05-27T07:51:40;9.85;;;7.22;;
10114;SDS011;5097;43.260;27.812;2023-05-27T07:54:26;7.82;;;7.07;;
10114;SDS011;5097;43.260;27.812;2023-05-27T07:57:11;8.13;;;6.90;;
10114;SDS011;5097;43.260;27.812;2023-05-27T07:59:56;8.05;;;6.45;;
10114;SDS011;5097;43.260;27.812;2023-05-27T08:02:57;7.28;;;5.95;;
10114;SDS011;5097;43.260;27.812;2023-05-27T08:06:01;8.73;;;7.93;;
10114;SDS011;5097;43.260;27.812;2023-05-27T08:09:05;6.25;;;5.75;;
10114;SDS011;5097;43.260;27.812;2023-05-27T08:12:08;7.88;;;7.20;;
10114;SDS011;5097;43.260;27.812;2023-05-27T08:14:55;7.68;;;6.65;;
10114;SDS011;5097;43.260;27.812;2023-05-27T08:17:56;7.80;;;6.47;;
10114;SDS011;5097;43.260;27.812;2023-05-27T08:21:02;8.13;;;7.22;;
10114;SDS011;5097;43.260;27.812;2023-05-27T08:23:59;8.40;;;7.53;;
10114;SDS011;5097;43.260;27.812;2023-05-27T08:26:45;7.47;;;6.88;;
10114;SDS011;5097;43.260;27.812;2023-05-27T08:29:44;7.53;;;6.78;;
10114;SDS011;5097;43.260;27.812;2023-05-27T08:32:45;11.15;;;7.18;;
10114;SDS011;5097;43.260;27.812;2023-05-27T08:35:35;14.60;;;8.45;;
10114;SDS011;5097;43.260;27.812;2023-05-27T08:38:19;8.50;;;6.93;;
10114;SDS011;5097;43.260;27.812;2023-05-27T08:41:06;8.27;;;7.47;;
10114;SDS011;5097;43.260;27.812;2023-05-27T08:43:51;5.63;;;5.13;;
10114;SDS011;5097;43.260;27.812;2023-05-27T08:46:54;6.68;;;6.18;;
10114;SDS011;5097;43.260;27.812;2023-05-27T08:49:40;7.50;;;6.47;;
10114;SDS011;5097;43.260;27.812;2023-05-27T08:52:26;8.68;;;6.55;;
10114;SDS011;5097;43.260;27.812;2023-05-27T08:55:12;7.32;;;6.63;;
10114;SDS011;5097;43.260;27.812;2023-05-27T08:57:59;7.93;;;7.13;;
10114;SDS011;5097;43.260;27.812;2023-05-27T09:00:49;6.65;;;5.65;;
10114;SDS011;5097;43.260;27.812;2023-05-27T09:03:35;7.95;;;7.25;;
10114;SDS011;5097;43.260;27.812;2023-05-27T09:06:20;7.13;;;6.53;;
10114;SDS011;5097;43.260;27.812;2023-05-27T09:09:07;26.50;;;23.73;;
10114;SDS011;5097;43.260;27.812;2023-05-27T09:11:51;12.07;;;10.93;;
10114;SDS011;5097;43.260;27.812;2023-05-27T09:14:37;11.07;;;9.98;;
10114;SDS011;5097;43.260;27.812;2023-05-27T09:17:22;12.30;;;11.10;;
10114;SDS011;5097;43.260;27.812;2023-05-27T09:20:06;13.13;;;11.80;;
10114;SDS011;5097;43.260;27.812;2023-05-27T09:22:55;11.55;;;10.45;;
10114;SDS011;5097;43.260;27.812;2023-05-27T09:25:41;8.65;;;7.85;;
10114;SDS011;5097;43.260;27.812;2023-05-27T09:28:25;8.68;;;7.53;;
10114;SDS011;5097;43.260;27.812;2023-05-27T09:31:09;22.13;;;19.80;;
10114;SDS011;5097;43.260;27.812;2023-05-27T09:33:53;11.05;;;7.40;;
10114;SDS011;5097;43.260;27.812;2023-05-27T09:36:41;7.65;;;6.95;;
10114;SDS011;5097;43.260;27.812;2023-05-27T09:39:26;7.75;;;7.03;;
10114;SDS011;5097;43.260;27.812;2023-05-27T09:42:11;7.25;;;6.63;;
10114;SDS011;5097;43.260;27.812;2023-05-27T09:44:55;6.03;;;5.53;;
10114;SDS011;5097;43.260;27.812;2023-05-27T09:47:39;8.18;;;5.95;;
10114;SDS011;5097;43.260;27.812;2023-05-27T09:50:24;8.05;;;7.28;;
10114;SDS011;5097;43.260;27.812;2023-05-27T09:53:09;9.35;;;8.48;;
10114;SDS011;5097;43.260;27.812;2023-05-27T09:55:55;6.10;;;5.60;;
10114;SDS011;5097;43.260;27.812;2023-05-27T09:58:41;6.38;;;5.70;;
10114;SDS011;5097;43.260;27.812;2023-05-27T10:01:26;8.55;;;6.28;;
10114;SDS011;5097;43.260;27.812;2023-05-27T10:04:11;6.47;;;5.90;;
10114;SDS011;5097;43.260;27.812;2023-05-27T10:06:57;8.60;;;7.03;;
10114;SDS011;5097;43.260;27.812;2023-05-27T10:09:43;9.43;;;8.40;;
10114;SDS011;5097;43.260;27.812;2023-05-27T10:12:28;5.65;;;5.00;;
10114;SDS011;5097;43.260;27.812;2023-05-27T10:15:21;6.95;;;4.80;;
10114;SDS011;5097;43.260;27.812;2023-05-27T10:18:06;6.53;;;5.93;;
10114;SDS011;5097;43.260;27.812;2023-05-27T10:20:52;15.85;;;12.40;;
10114;SDS011;5097;43.260;27.812;2023-05-27T10:23:36;7.55;;;6.30;;
10114;SDS011;5097;43.260;27.812;2023-05-27T10:26:30;6.30;;;4.88;;
10114;SDS011;5097;43.260;27.812;2023-05-27T10:29:15;6.15;;;5.47;;
10114;SDS011;5097;43.260;27.812;2023-05-27T10:32:02;5.80;;;5.40;;
10114;SDS011;5097;43.260;27.812;2023-05-27T10:34:46;8.88;;;6.97;;
10114;SDS011;5097;43.260;27.812;2023-05-27T10:37:32;18.70;;;15.43;;
10114;SDS011;5097;43.260;27.812;2023-05-27T10:40:23;7.75;;;6.85;;
10114;SDS011;5097;43.260;27.812;2023-05-27T10:43:14;9.43;;;8.43;;
10114;SDS011;5097;43.260;27.812;2023-05-27T10:46:02;11.57;;;7.55;;
10114;SDS011;5097;43.260;27.812;2023-05-27T10:48:49;11.70;;;8.10;;
10114;SDS011;5097;43.260;27.812;2023-05-27T10:51:33;10.90;;;9.15;;
10114;SDS011;5097;43.260;27.812;2023-05-27T10:54:18;9.63;;;8.73;;
10114;SDS011;5097;43.260;27.812;2023-05-27T10:57:11;10.48;;;8.80;;
10114;SDS011;5097;43.260;27.812;2023-05-27T10:59:55;10.60;;;9.07;;
10114;SDS011;5097;43.260;27.812;2023-05-27T11:02:48;11.73;;;9.50;;
10114;SDS011;5097;43.260;27.812;2023-05-27T11:05:34;21.55;;;10.07;;
10114;SDS011;5097;43.260;27.812;2023-05-27T11:08:18;15.60;;;10.55;;
10114;SDS011;5097;43.260;27.812;2023-05-27T11:11:05;11.77;;;10.50;;
10114;SDS011;5097;43.260;27.812;2023-05-27T11:13:50;11.02;;;9.95;;
10114;SDS011;5097;43.260;27.812;2023-05-27T11:16:34;12.18;;;10.82;;
10114;SDS011;5097;43.260;27.812;2023-05-27T11:19:19;12.18;;;10.82;;
10114;SDS011;5097;43.260;27.812;2023-05-27T11:22:06;16.13;;;12.57;;
10114;SDS011;5097;43.260;27.812;2023-05-27T11:24:56;16.38;;;14.68;;
10114;SDS011;5097;43.260;27.812;2023-05-27T11:27:41;17.92;;;16.20;;
10114;SDS011;5097;43.260;27.812;2023-05-27T11:30:25;18.90;;;17.15;;
10114;SDS011;5097;43.260;27.812;2023-05-27T11:33:09;17.10;;;15.55;;
10114;SDS011;5097;43.260;27.812;2023-05-27T11:36:10;16.25;;;14.60;;
10114;SDS011;5097;43.260;27.812;2023-05-27T11:38:58;17.27;;;15.55;;
10114;SDS011;5097;43.260;27.812;2023-05-27T11:41:49;16.05;;;14.45;;
10114;SDS011;5097;43.260;27.812;2023-05-27T11:44:34;19.05;;;15.95;;
10114;SDS011;5097;43.260;27.812;2023-05-27T11:47:18;15.02;;;13.73;;
10114;SDS011;5097;43.260;27.812;2023-05-27T11:50:04;12.65;;;11.45;;
10114;SDS011;5097;43.260;27.812;2023-05-27T11:52:52;13.75;;;12.55;;
10114;SDS011;5097;43.260;27.812;2023-05-27T11:55:39;13.27;;;11.98;;
10114;SDS011;5097;43.260;27.812;2023-05-27T11:58:23;12.63;;;11.57;;
10114;SDS011;5097;43.260;27.812;2023-05-27T12:01:07;12.93;;;11.82;;
10114;SDS011;5097;43.260;27.812;2023-05-27T12:03:51;11.73;;;10.52;;
10114;SDS011;5097;43.260;27.812;2023-05-27T12:06:35;12.90;;;11.60;;
10114;SDS011;5097;43.260;27.812;2023-05-27T12:09:20;12.07;;;10.85;;
10114;SDS011;5097;43.260;27.812;2023-05-27T12:12:06;12.75;;;11.43;;
10114;SDS011;5097;43.260;27.812;2023-05-27T12:14:50;12.32;;;11.18;;
10114;SDS011;5097;43.260;27.812;2023-05-27T12:17:34;11.63;;;10.50;;
10114;SDS011;5097;43.260;27.812;2023-05-27T12:20:18;13.18;;;12.07;;
10114;SDS011;5097;43.260;27.812;2023-05-27T12:23:02;13.70;;;12.55;;
10114;SDS011;5097;43.260;27.812;2023-05-27T12:25:46;16.30;;;14.35;;
10114;SDS011;5097;43.260;27.812;2023-05-27T12:28:32;17.92;;;16.23;;
10114;SDS011;5097;43.260;27.812;2023-05-27T12:31:16;13.75;;;12.55;;
10114;SDS011;5097;43.260;27.812;2023-05-27T12:34:00;12.45;;;11.25;;
10114;SDS011;5097;43.260;27.812;2023-05-27T12:36:44;9.57;;;8.50;;
10114;SDS011;5097;43.260;27.812;2023-05-27T12:39:30;10.23;;;9.23;;
10114;SDS011;5097;43.260;27.812;2023-05-27T12:42:13;9.68;;;8.68;;
10114;SDS011;5097;43.260;27.812;2023-05-27T12:44:59;9.57;;;8.55;;
10114;SDS011;5097;43.260;27.812;2023-05-27T12:47:45;10.45;;;9.25;;
10114;SDS011;5097;43.260;27.812;2023-05-27T12:50:29;9.27;;;8.48;;
10114;SDS011;5097;43.260;27.812;2023-05-27T12:53:13;9.85;;;8.88;;
10114;SDS011;5097;43.260;27.812;2023-05-27T12:55:57;12.23;;;11.07;;
10114;SDS011;5097;43.260;27.812;2023-05-27T12:58:41;13.15;;;11.82;;
10114;SDS011;5097;43.260;27.812;2023-05-27T13:01:26;9.63;;;8.73;;
10114;SDS011;5097;43.260;27.812;2023-05-27T13:04:10;9.85;;;9.05;;
10114;SDS011;5097;43.260;27.812;2023-05-27T13:06:54;9.65;;;8.65;;
10114;SDS011;5097;43.260;27.812;2023-05-27T13:09:39;10.05;;;9.18;;
10114;SDS011;5097;43.260;27.812;2023-05-27T13:12:23;9.88;;;8.70;;
10114;SDS011;5097;43.260;27.812;2023-05-27T13:15:07;8.57;;;7.80;;
10114;SDS011;5097;43.260;27.812;2023-05-27T13:17:53;7.57;;;6.88;;
10114;SDS011;5097;43.260;27.812;2023-05-27T13:20:38;7.13;;;6.43;;
10114;SDS011;5097;43.260;27.812;2023-05-27T13:23:22;8.57;;;7.68;;
10114;SDS011;5097;43.260;27.812;2023-05-27T13:26:06;8.43;;;7.60;;
10114;SDS011;5097;43.260;27.812;2023-05-27T13:28:50;7.97;;;7.28;;
10114;SDS011;5097;43.260;27.812;2023-05-27T13:31:34;6.68;;;6.18;;
10114;SDS011;5097;43.260;27.812;2023-05-27T13:34:20;8.45;;;7.63;;
10114;SDS011;5097;43.260;27.812;2023-05-27T13:37:04;8.73;;;7.90;;
10114;SDS011;5097;43.260;27.812;2023-05-27T13:39:49;7.57;;;6.93;;
10114;SDS011;5097;43.260;27.812;2023-05-27T13:42:33;6.70;;;6.10;;
10114;SDS011;5097;43.260;27.812;2023-05-27T13:45:17;8.13;;;7.22;;
10114;SDS011;5097;43.260;27.812;2023-05-27T13:48:01;7.65;;;6.90;;
10114;SDS011;5097;43.260;27.812;2023-05-27T13:50:47;7.45;;;6.68;;
10114;SDS011;5097;43.260;27.812;2023-05-27T13:53:30;8.48;;;7.68;;
10114;SDS011;5097;43.260;27.812;2023-05-27T13:56:14;6.53;;;5.97;;
10114;SDS011;5097;43.260;27.812;2023-05-27T13:58:58;6.07;;;5.63;;
10114;SDS011;5097;43.260;27.812;2023-05-27T14:01:45;6.40;;;5.03;;
10114;SDS011;5097;43.260;27.812;2023-05-27T14:04:29;6.03;;;5.53;;
10114;SDS011;5097;43.260;27.812;2023-05-27T14:07:15;5.20;;;4.80;;
10114;SDS011;5097;43.260;27.812;2023-05-27T14:09:59;5.50;;;5.00;;
10114;SDS011;5097;43.260;27.812;2023-05-27T14:12:43;5.95;;;5.30;;
10114;SDS011;5097;43.260;27.812;2023-05-27T14:15:27;4.93;;;4.53;;
10114;SDS011;5097;43.260;27.812;2023-05-27T14:18:12;5.90;;;5.20;;
10114;SDS011;5097;43.260;27.812;2023-05-27T14:20:56;5.90;;;5.25;;
10114;SDS011;5097;43.260;27.812;2023-05-27T14:23:41;5.20;;;4.80;;
10114;SDS011;5097;43.260;27.812;2023-05-27T14:26:25;6.40;;;5.90;;
10114;SDS011;5097;43.260;27.812;2023-05-27T14:29:09;4.95;;;4.35;;
10114;SDS011;5097;43.260;27.812;2023-05-27T14:31:53;6.03;;;4.82;;
10114;SDS011;5097;43.260;27.812;2023-05-27T14:34:37;8.82;;;7.63;;
10114;SDS011;5097;43.260;27.812;2023-05-27T14:37:21;10.25;;;9.27;;
10114;SDS011;5097;43.260;27.812;2023-05-27T14:40:08;13.77;;;12.27;;
10114;SDS011;5097;43.260;27.812;2023-05-27T14:42:52;14.77;;;12.02;;
10114;SDS011;5097;43.260;27.812;2023-05-27T14:45:36;12.32;;;11.40;;
10114;SDS011;5097;43.260;27.812;2023-05-27T14:48:21;12.43;;;11.32;;
10114;SDS011;5097;43.260;27.812;2023-05-27T14:51:05;12.65;;;11.38;;
10114;SDS011;5097;43.260;27.812;2023-05-27T14:53:49;12.63;;;11.57;;
10114;SDS011;5097;43.260;27.812;2023-05-27T14:56:35;13.02;;;11.73;;
10114;SDS011;5097;43.260;27.812;2023-05-27T14:59:20;12.90;;;11.68;;
10114;SDS011;5097;43.260;27.812;2023-05-27T15:02:04;12.70;;;11.50;;
10114;SDS011;5097;43.260;27.812;2023-05-27T15:04:48;13.10;;;11.38;;
10114;SDS011;5097;43.260;27.812;2023-05-27T15:07:32;13.02;;;11.82;;
10114;SDS011;5097;43.260;27.812;2023-05-27T15:10:16;12.60;;;11.27;;
10114;SDS011;5097;43.260;27.812;2023-05-27T15:13:02;13.02;;;11.68;;
10114;SDS011;5097;43.260;27.812;2023-05-27T15:15:46;12.68;;;11.48;;
10114;SDS011;5097;43.260;27.812;2023-05-27T15:18:31;8.63;;;6.72;;
10114;SDS011;5097;43.260;27.812;2023-05-27T15:21:15;4.65;;;4.25;;
10114;SDS011;5097;43.260;27.812;2023-05-27T15:23:59;5.07;;;4.40;;
10114;SDS011;5097;43.260;27.812;2023-05-27T15:26:43;4.53;;;3.90;;
10114;SDS011;5097;43.260;27.812;2023-05-27T15:29:29;4.38;;;4.07;;
10114;SDS011;5097;43.260;27.812;2023-05-27T15:32:13;4.68;;;4.22;;
10114;SDS011;5097;43.260;27.812;2023-05-27T15:34:57;4.82;;;4.40;;
10114;SDS011;5097;43.260;27.812;2023-05-27T15:37:46;3.95;;;3.72;;
10114;SDS011;5097;43.260;27.812;2023-05-27T15:40:30;6.45;;;5.20;;
10114;SDS011;5097;43.260;27.812;2023-05-27T15:43:15;5.05;;;4.63;;
10114;SDS011;5097;43.260;27.812;2023-05-27T15:46:00;8.30;;;6.78;;
10114;SDS011;5097;43.260;27.812;2023-05-27T15:48:47;6.45;;;5.78;;
10114;SDS011;5097;43.260;27.812;2023-05-27T15:51:31;6.20;;;5.68;;
10114;SDS011;5097;43.260;27.812;2023-05-27T15:54:15;7.47;;;6.72;;
10114;SDS011;5097;43.260;27.812;2023-05-27T15:56:59;7.20;;;4.38;;
10114;SDS011;5097;43.260;27.812;2023-05-27T15:59:43;4.88;;;4.47;;
10114;SDS011;5097;43.260;27.812;2023-05-27T16:02:28;5.90;;;4.90;;
10114;SDS011;5097;43.260;27.812;2023-05-27T16:05:12;6.95;;;5.15;;
10114;SDS011;5097;43.260;27.812;2023-05-27T16:07:56;6.53;;;5.43;;
10114;SDS011;5097;43.260;27.812;2023-05-27T16:10:44;6.88;;;6.15;;
10114;SDS011;5097;43.260;27.812;2023-05-27T16:13:28;6.63;;;5.78;;
10114;SDS011;5097;43.260;27.812;2023-05-27T16:16:12;5.50;;;5.03;;
10114;SDS011;5097;43.260;27.812;2023-05-27T16:18:58;7.03;;;5.50;;
10114;SDS011;5097;43.260;27.812;2023-05-27T16:21:42;6.53;;;5.68;;
10114;SDS011;5097;43.260;27.812;2023-05-27T16:24:28;5.30;;;4.88;;
10114;SDS011;5097;43.260;27.812;2023-05-27T16:27:13;6.80;;;5.97;;